Time;durP1;ratioP1;P1;durP2;ratioP2;P2;SDS_P1;SDS_P2;PMS_P1;PMS_P2;Temp;Humidity;BMP_temperature;BMP_pressure;BME280_temperature;BME280_humidity;BME280_pressure;Samples;Min_cycle;Max_cycle;Signal;HPM_P1;HPM_P2
2021/11/06 00:00:30;;;;;;;23.92;16.90;;;4.30;99.90;;;;;;1867792;75;21461;-74
2021/11/06 00:02:57;;;;;;;23.60;16.23;;;4.20;99.90;;;;;;1876570;75;21567;-73
2021/11/06 00:05:23;;;;;;;31.45;17.05;;;4.20;99.90;;;;;;1874376;75;21148;-75
2021/11/06 00:07:49;;;;;;;24.40;18.00;;;4.20;99.90;;;;;;1869626;75;21155;-73
2021/11/06 00:10:15;;;;;;;26.68;17.90;;;4.10;99.90;;;;;;1868730;75;21054;-74
2021/11/06 00:12:41;;;;;;;26.82;18.45;;;4.20;99.90;;;;;;1876379;75;21055;-72
2021/11/06 00:15:07;;;;;;;28.98;18.62;;;4.40;99.90;;;;;;1872154;74;21090;-72
2021/11/06 00:17:33;;;;;;;29.72;18.20;;;4.50;99.90;;;;;;1872865;74;21188;-74
2021/11/06 00:20:00;;;;;;;32.33;17.77;;;4.50;99.90;;;;;;1839458;76;21083;-76
2021/11/06 00:22:26;;;;;;;27.13;18.05;;;4.50;99.90;;;;;;1819293;77;21105;-74
2021/11/06 00:24:53;;;;;;;28.67;17.73;;;4.50;99.90;;;;;;1827203;77;21186;-74
2021/11/06 00:27:19;;;;;;;22.80;16.80;;;4.70;99.90;;;;;;1818539;78;21551;-74
2021/11/06 00:29:45;;;;;;;27.77;18.30;;;4.70;99.90;;;;;;1834509;77;21616;-74
2021/11/06 00:32:11;;;;;;;26.07;17.05;;;4.80;99.90;;;;;;1823096;76;21585;-76
2021/11/06 00:34:37;;;;;;;26.30;16.95;;;4.90;99.90;;;;;;1819352;77;21608;-76
2021/11/06 00:37:03;;;;;;;23.15;16.07;;;4.90;99.90;;;;;;1824300;76;21527;-74
2021/11/06 00:39:29;;;;;;;27.87;17.10;;;4.80;99.90;;;;;;1832070;76;21172;-75
2021/11/06 00:41:55;;;;;;;26.85;17.48;;;4.70;99.90;;;;;;1881727;75;21090;-75
2021/11/06 00:44:22;;;;;;;19.50;15.20;;;4.80;99.90;;;;;;1838022;77;21107;-74
2021/11/06 00:46:48;;;;;;;26.37;16.85;;;4.80;99.90;;;;;;1821577;77;21165;-73
2021/11/06 00:49:15;;;;;;;27.37;18.23;;;4.80;99.90;;;;;;1871915;76;21172;-74
2021/11/06 00:51:41;;;;;;;29.45;19.25;;;4.80;99.90;;;;;;1823344;76;21091;-73
2021/11/06 00:54:07;;;;;;;40.12;19.27;;;4.90;99.90;;;;;;1826239;77;21164;-76
2021/11/06 00:56:33;;;;;;;32.98;19.12;;;5.00;99.90;;;;;;1819075;77;21147;-76
2021/11/06 00:58:59;;;;;;;35.13;19.27;;;5.00;99.90;;;;;;1826636;78;21166;-72
2021/11/06 01:01:25;;;;;;;34.73;20.68;;;4.90;99.90;;;;;;1837581;77;21157;-76
2021/11/06 01:03:53;;;;;;;43.83;20.70;;;5.00;99.90;;;;;;1875649;76;21910;-75
2021/11/06 01:06:19;;;;;;;43.33;22.52;;;4.90;99.90;;;;;;1867067;75;21085;-76
2021/11/06 01:08:45;;;;;;;39.45;22.73;;;4.90;99.90;;;;;;1838474;77;21063;-75
2021/11/06 01:11:12;;;;;;;47.58;24.30;;;4.90;99.90;;;;;;1818773;77;21078;-73
2021/11/06 01:13:38;;;;;;;58.08;29.65;;;5.00;99.90;;;;;;1818888;77;21102;-77
2021/11/06 01:16:04;;;;;;;58.25;35.68;;;5.00;99.90;;;;;;1818257;76;21149;-75
2021/11/06 01:18:30;;;;;;;61.80;35.28;;;5.10;99.90;;;;;;1833247;76;21204;-76
2021/11/06 01:20:56;;;;;;;67.70;38.50;;;5.10;99.90;;;;;;1822685;77;21095;-76
2021/11/06 01:23:22;;;;;;;73.28;39.53;;;5.10;99.90;;;;;;1873535;75;21091;-75
2021/11/06 01:25:48;;;;;;;99.77;40.05;;;5.00;99.90;;;;;;1829563;76;21163;-75
2021/11/06 01:28:15;;;;;;;93.12;41.98;;;5.00;99.90;;;;;;1819122;77;21146;-74
2021/11/06 01:30:41;;;;;;;81.80;40.58;;;4.90;99.90;;;;;;1863554;75;21089;-75
2021/11/06 01:33:07;;;;;;;73.45;35.05;;;4.90;99.90;;;;;;1877674;75;21098;-74
2021/11/06 01:35:33;;;;;;;68.85;31.50;;;4.90;99.90;;;;;;1823564;76;21507;-75
2021/11/06 01:37:59;;;;;;;71.25;30.15;;;4.90;99.90;;;;;;1832103;76;21458;-74
2021/11/06 01:40:25;;;;;;;63.20;26.23;;;4.90;99.90;;;;;;1861775;75;21489;-75
2021/11/06 01:42:51;;;;;;;54.08;24.35;;;4.90;99.90;;;;;;1860850;76;21520;-74
2021/11/06 01:45:17;;;;;;;63.68;19.98;;;4.90;99.90;;;;;;1865240;75;21091;-75
2021/11/06 01:47:43;;;;;;;67.08;19.75;;;4.80;99.90;;;;;;1828176;76;21135;-74
2021/11/06 01:50:10;;;;;;;71.95;17.57;;;4.80;99.90;;;;;;1833023;77;21215;-75
2021/11/06 01:52:36;;;;;;;66.77;17.17;;;4.80;99.90;;;;;;1818832;77;21106;-73
2021/11/06 01:55:02;;;;;;;95.62;16.12;;;4.80;99.90;;;;;;1823515;76;21095;-75
2021/11/06 01:57:28;;;;;;;69.17;16.35;;;4.70;99.90;;;;;;1875398;75;21095;-75
2021/11/06 01:59:54;;;;;;;46.55;14.98;;;4.70;99.90;;;;;;1870143;75;21175;-75
2021/11/06 02:02:20;;;;;;;107.90;17.05;;;4.70;99.90;;;;;;1869702;75;21151;-75
2021/11/06 02:04:46;;;;;;;31.93;13.75;;;4.70;99.90;;;;;;1870682;75;21286;-75
2021/11/06 02:07:12;;;;;;;129.25;16.02;;;4.70;99.90;;;;;;1826129;76;21068;-75
2021/11/06 02:09:39;;;;;;;80.20;16.55;;;4.60;99.90;;;;;;1837415;77;21160;-75
2021/11/06 02:12:05;;;;;;;29.50;15.15;;;4.50;99.90;;;;;;1835489;77;21169;-75
2021/11/06 02:14:31;;;;;;;54.95;14.38;;;4.60;99.90;;;;;;1840060;77;21103;-75
2021/11/06 02:16:57;;;;;;;58.60;16.57;;;4.60;99.90;;;;;;1819172;76;21451;-75
2021/11/06 02:19:24;;;;;;;45.45;14.05;;;4.50;99.90;;;;;;1819120;77;21176;-75
2021/11/06 02:21:50;;;;;;;49.93;14.20;;;4.50;99.90;;;;;;1831347;77;21101;-75
2021/11/06 02:24:16;;;;;;;48.20;15.08;;;4.40;99.90;;;;;;1877844;76;21160;-75
2021/11/06 02:26:42;;;;;;;48.68;13.90;;;4.50;99.90;;;;;;1833836;76;21169;-75
2021/11/06 02:29:08;;;;;;;35.63;13.78;;;4.40;99.90;;;;;;1825948;77;21110;-75
2021/11/06 02:31:35;;;;;;;72.12;13.70;;;4.40;99.90;;;;;;1866262;75;21186;-75
2021/11/06 02:34:01;;;;;;;42.90;15.45;;;4.40;99.90;;;;;;1830426;77;21510;-75
2021/11/06 02:36:27;;;;;;;54.03;15.78;;;4.40;99.90;;;;;;1819254;78;21491;-75
2021/11/06 02:38:53;;;;;;;26.02;14.98;;;4.40;99.90;;;;;;1824172;76;21193;-74
2021/11/06 02:41:19;;;;;;;64.97;17.50;;;4.30;99.90;;;;;;1819956;77;21067;-75
2021/11/06 02:43:45;;;;;;;66.35;17.73;;;4.40;99.90;;;;;;1832582;77;21102;-75
2021/11/06 02:46:11;;;;;;;69.45;19.48;;;4.50;99.90;;;;;;1818515;77;21102;-76
2021/11/06 02:48:37;;;;;;;54.13;18.73;;;4.50;99.90;;;;;;1840071;77;21107;-74
2021/11/06 02:51:04;;;;;;;38.05;16.67;;;4.50;99.90;;;;;;1836976;77;21103;-76
2021/11/06 02:53:30;;;;;;;58.13;16.57;;;4.60;99.90;;;;;;1818802;77;21173;-75
2021/11/06 02:55:56;;;;;;;39.83;15.08;;;4.60;99.90;;;;;;1821313;76;21092;-76
2021/11/06 02:58:22;;;;;;;55.10;16.87;;;4.60;99.90;;;;;;1825441;76;21089;-75
2021/11/06 03:00:48;;;;;;;62.55;15.78;;;4.50;99.90;;;;;;1819313;78;21160;-75
2021/11/06 03:03:14;;;;;;;48.80;14.95;;;4.50;99.90;;;;;;1829103;77;21129;-75
2021/11/06 03:05:40;;;;;;;36.50;16.82;;;4.50;99.90;;;;;;1794034;79;21140;-75
2021/11/06 03:08:06;;;;;;;27.00;16.25;;;4.40;99.90;;;;;;1864632;75;21103;-75
2021/11/06 03:10:33;;;;;;;27.80;16.02;;;4.40;99.90;;;;;;1841112;76;21064;-74
2021/11/06 03:12:59;;;;;;;68.83;17.15;;;4.50;99.90;;;;;;1819264;77;22117;-75
2021/11/06 03:15:25;;;;;;;93.12;15.80;;;4.50;99.90;;;;;;1819035;79;21142;-74
2021/11/06 03:17:53;;;;;;;29.00;15.58;;;4.50;99.90;;;;;;1832107;77;21095;-74
2021/11/06 03:20:19;;;;;;;41.13;14.90;;;4.50;99.90;;;;;;1819487;77;21091;-74
2021/11/06 03:22:45;;;;;;;32.58;14.25;;;4.50;99.90;;;;;;1838285;77;21213;-74
2021/11/06 03:25:11;;;;;;;38.85;14.75;;;4.50;99.90;;;;;;1817403;77;21161;-73
2021/11/06 03:27:38;;;;;;;31.17;14.90;;;4.50;99.90;;;;;;1829567;76;21101;-73
2021/11/06 03:30:04;;;;;;;28.98;13.80;;;4.50;99.90;;;;;;1879810;76;21095;-73
2021/11/06 03:32:30;;;;;;;29.92;13.28;;;4.50;99.90;;;;;;1863220;75;21176;-74
2021/11/06 03:34:56;;;;;;;59.03;15.23;;;4.50;99.90;;;;;;1829646;78;21064;-74
2021/11/06 03:37:22;;;;;;;72.67;18.05;;;4.40;99.90;;;;;;1818625;77;21107;-74
2021/11/06 03:39:48;;;;;;;25.20;14.78;;;4.30;99.90;;;;;;1826799;76;21518;-74
2021/11/06 03:42:14;;;;;;;26.52;14.30;;;4.20;99.90;;;;;;1819111;77;21573;-73
2021/11/06 03:44:42;;;;;;;32.20;15.50;;;4.20;99.90;;;;;;1838911;77;21530;-74
2021/11/06 03:47:08;;;;;;;28.42;14.28;;;4.20;99.90;;;;;;1833175;76;21068;-74
2021/11/06 03:49:34;;;;;;;27.40;12.82;;;4.30;99.90;;;;;;1831652;78;21262;-74
2021/11/06 03:52:00;;;;;;;58.35;14.83;;;4.30;99.90;;;;;;1827828;77;21095;-73
2021/11/06 03:54:26;;;;;;;20.05;13.13;;;4.20;99.90;;;;;;1819221;77;21106;-74
2021/11/06 03:56:54;;;;;;;54.93;14.15;;;4.30;99.90;;;;;;1830067;78;21098;-74
2021/11/06 03:59:20;;;;;;;20.80;12.50;;;4.30;99.90;;;;;;1819274;77;21303;-74
2021/11/06 04:01:46;;;;;;;35.73;13.03;;;4.30;99.90;;;;;;1823390;76;21283;-75
2021/11/06 04:04:12;;;;;;;25.05;13.53;;;4.30;99.90;;;;;;1872818;75;21067;-74
2021/11/06 04:06:38;;;;;;;21.60;12.98;;;4.30;99.90;;;;;;1863888;76;21152;-73
2021/11/06 04:09:04;;;;;;;22.67;13.20;;;4.20;99.90;;;;;;1829427;76;21103;-75
2021/11/06 04:11:31;;;;;;;49.10;13.13;;;4.20;99.90;;;;;;1869461;75;21227;-75
2021/11/06 04:13:57;;;;;;;22.82;12.60;;;4.30;99.90;;;;;;1835037;77;21104;-74
2021/11/06 04:16:23;;;;;;;31.37;13.53;;;4.30;99.90;;;;;;1841938;77;21063;-75
2021/11/06 04:18:49;;;;;;;41.23;13.45;;;4.20;99.90;;;;;;1819525;78;21115;-75
2021/11/06 04:21:15;;;;;;;34.80;13.75;;;4.30;99.90;;;;;;1822872;77;21157;-75
2021/11/06 04:23:41;;;;;;;39.23;14.03;;;4.30;99.90;;;;;;1819408;78;21173;-75
2021/11/06 04:26:09;;;;;;;53.83;14.98;;;4.30;99.90;;;;;;1831092;77;21148;-75
2021/11/06 04:28:35;;;;;;;39.83;15.23;;;4.30;99.90;;;;;;1831744;77;21582;-74
2021/11/06 04:31:01;;;;;;;89.95;15.65;;;4.20;99.90;;;;;;1833411;77;21605;-74
2021/11/06 04:33:27;;;;;;;73.78;16.73;;;4.30;99.90;;;;;;1832089;77;21164;-75
2021/11/06 04:35:53;;;;;;;68.57;17.73;;;4.20;99.90;;;;;;1874563;75;21046;-74
2021/11/06 04:38:19;;;;;;;24.77;15.35;;;4.10;99.90;;;;;;1826602;76;21063;-74
2021/11/06 04:40:45;;;;;;;56.48;17.30;;;4.10;99.90;;;;;;1863339;75;21164;-75
2021/11/06 04:43:12;;;;;;;68.25;19.15;;;4.20;99.90;;;;;;1877624;75;21203;-74
2021/11/06 04:45:38;;;;;;;74.70;19.40;;;4.20;99.90;;;;;;1833605;76;21098;-75
2021/11/06 04:48:06;;;;;;;61.58;17.95;;;4.20;99.90;;;;;;1827741;76;21160;-75
2021/11/06 04:50:32;;;;;;;26.42;16.52;;;4.20;99.90;;;;;;1819545;77;21224;-75
2021/11/06 04:52:58;;;;;;;116.90;18.80;;;4.30;99.90;;;;;;1838692;77;21091;-74
2021/11/06 04:55:25;;;;;;;74.20;17.80;;;4.20;99.90;;;;;;1821413;76;21094;-74
2021/11/06 04:57:51;;;;;;;68.28;17.35;;;4.30;99.90;;;;;;1819084;77;21563;-75
2021/11/06 05:00:17;;;;;;;44.80;15.78;;;4.20;99.90;;;;;;1826643;76;21461;-75
2021/11/06 05:02:43;;;;;;;49.30;17.02;;;4.20;99.90;;;;;;1826990;76;21640;-75
2021/11/06 05:05:09;;;;;;;64.50;17.20;;;4.10;99.90;;;;;;1825001;77;21097;-75
2021/11/06 05:07:35;;;;;;;118.22;17.40;;;4.00;99.90;;;;;;1828345;78;21156;-75
2021/11/06 05:10:01;;;;;;;54.77;17.25;;;4.00;99.90;;;;;;1823653;77;21106;-75
2021/11/06 05:12:28;;;;;;;36.15;16.60;;;3.80;99.90;;;;;;1832214;77;21085;-75
2021/11/06 05:14:54;;;;;;;40.40;16.27;;;3.80;99.90;;;;;;1878895;76;21188;-75
2021/11/06 05:17:20;;;;;;;30.50;15.28;;;3.80;99.90;;;;;;1821380;77;21098;-75
2021/11/06 05:19:46;;;;;;;25.40;15.38;;;3.70;99.90;;;;;;1818478;78;21168;-75
2021/11/06 05:22:12;;;;;;;34.20;16.70;;;3.70;99.90;;;;;;1831924;77;21183;-75
2021/11/06 05:24:39;;;;;;;29.60;15.45;;;3.70;99.90;;;;;;1871499;76;21156;-75
2021/11/06 05:27:05;;;;;;;20.60;13.48;;;3.70;99.90;;;;;;1863762;76;21097;-76
2021/11/06 05:29:31;;;;;;;24.23;13.03;;;3.60;99.90;;;;;;1864857;75;21085;-75
2021/11/06 05:31:57;;;;;;;19.17;12.03;;;3.50;99.90;;;;;;1838851;77;21092;-75
2021/11/06 05:34:23;;;;;;;20.25;11.80;;;3.50;99.90;;;;;;1834239;77;21111;-75
2021/11/06 05:36:49;;;;;;;20.10;12.28;;;3.40;99.90;;;;;;1818094;79;21107;-75
2021/11/06 05:39:15;;;;;;;17.75;11.63;;;3.50;99.90;;;;;;1830451;76;21506;-75
2021/11/06 05:41:42;;;;;;;18.23;11.65;;;3.40;99.90;;;;;;1868638;75;21567;-75
2021/11/06 05:44:08;;;;;;;20.70;12.75;;;3.30;99.90;;;;;;1867451;75;21494;-75
2021/11/06 05:46:34;;;;;;;28.62;13.90;;;3.30;99.90;;;;;;1824711;76;21669;-74
2021/11/06 05:49:00;;;;;;;22.07;12.40;;;3.30;99.90;;;;;;1861463;75;21164;-76
2021/11/06 05:51:26;;;;;;;22.07;12.43;;;3.40;99.90;;;;;;1818680;77;21152;-75
2021/11/06 05:53:52;;;;;;;22.52;11.68;;;3.40;99.90;;;;;;1818810;78;21103;-74
2021/11/06 05:56:19;;;;;;;14.58;9.23;;;3.40;99.90;;;;;;1822827;76;21094;-74
2021/11/06 05:58:45;;;;;;;15.63;9.63;;;3.30;99.90;;;;;;1820736;77;21105;-75
2021/11/06 06:01:11;;;;;;;22.27;10.75;;;3.30;99.90;;;;;;1818913;77;21527;-76
2021/11/06 06:03:38;;;;;;;23.60;12.37;;;3.40;99.90;;;;;;1829334;77;21509;-75
2021/11/06 06:06:04;;;;;;;23.90;10.93;;;3.30;99.90;;;;;;1827132;76;21507;-75
2021/11/06 06:08:30;;;;;;;26.68;12.45;;;3.30;99.90;;;;;;1839129;77;21605;-76
2021/11/06 06:10:56;;;;;;;24.90;12.88;;;3.40;99.90;;;;;;1835892;77;21158;-75
2021/11/06 06:13:22;;;;;;;32.05;12.58;;;3.40;99.90;;;;;;1819493;77;21166;-75
2021/11/06 06:15:48;;;;;;;29.85;11.75;;;3.40;99.90;;;;;;1834678;77;21176;-76
2021/11/06 06:18:14;;;;;;;25.65;12.30;;;3.40;99.90;;;;;;1825229;78;21144;-76
2021/11/06 06:20:40;;;;;;;26.52;12.40;;;3.20;99.90;;;;;;1796134;78;21090;-75
2021/11/06 06:23:06;;;;;;;24.82;11.28;;;3.20;99.90;;;;;;1864866;75;21139;-75
2021/11/06 06:25:33;;;;;;;28.20;12.37;;;3.20;99.90;;;;;;1862932;75;21051;-75
2021/11/06 06:27:59;;;;;;;28.60;12.28;;;3.20;99.90;;;;;;1860680;75;21074;-75
2021/11/06 06:30:25;;;;;;;30.95;12.95;;;3.20;99.90;;;;;;1816886;76;21261;-75
2021/11/06 06:32:51;;;;;;;33.98;13.13;;;3.30;99.90;;;;;;1819313;79;21503;-72
2021/11/06 06:35:17;;;;;;;31.60;12.82;;;3.30;99.90;;;;;;1839621;77;21550;-73
2021/11/06 06:37:43;;;;;;;29.30;11.93;;;3.30;99.90;;;;;;1881635;76;21490;-72
2021/11/06 06:40:09;;;;;;;34.27;11.95;;;3.40;99.90;;;;;;1859414;75;21809;-73
2021/11/06 06:42:36;;;;;;;30.70;12.58;;;3.20;99.90;;;;;;1830634;77;21217;-73
2021/11/06 06:45:02;;;;;;;31.37;12.95;;;3.20;99.90;;;;;;1836050;77;21204;-72
2021/11/06 06:47:29;;;;;;;34.00;12.45;;;3.20;99.90;;;;;;1839892;78;21221;-76
2021/11/06 06:49:55;;;;;;;36.00;13.95;;;3.20;99.90;;;;;;1829582;77;21110;-77
2021/11/06 06:52:23;;;;;;;34.95;13.80;;;3.20;99.90;;;;;;1836255;76;21483;-76
2021/11/06 06:54:49;;;;;;;53.70;14.47;;;3.30;99.90;;;;;;1874605;75;21394;-76
2021/11/06 06:57:15;;;;;;;40.08;14.20;;;3.30;99.90;;;;;;1839011;77;21221;-77
2021/11/06 06:59:41;;;;;;;40.20;15.15;;;3.40;99.90;;;;;;1827186;76;21176;-77
2021/11/06 07:02:08;;;;;;;33.63;14.45;;;3.40;99.90;;;;;;1818456;78;21169;-76
2021/11/06 07:04:34;;;;;;;51.77;15.45;;;3.50;99.90;;;;;;1829345;77;21103;-75
2021/11/06 07:07:00;;;;;;;44.80;14.00;;;3.40;99.90;;;;;;1830945;76;21142;-75
2021/11/06 07:09:26;;;;;;;34.33;14.35;;;3.50;99.90;;;;;;1818747;78;21169;-76
2021/11/06 07:11:52;;;;;;;43.65;14.10;;;3.50;99.90;;;;;;1817153;77;21160;-75
2021/11/06 07:14:19;;;;;;;38.25;14.33;;;3.40;99.90;;;;;;1819504;77;21102;-75
2021/11/06 07:16:45;;;;;;;33.85;13.75;;;3.50;99.90;;;;;;1834246;77;21546;-75
2021/11/06 07:19:12;;;;;;;40.55;13.80;;;3.40;99.90;;;;;;1834809;77;21460;-74
2021/11/06 07:21:38;;;;;;;30.77;12.80;;;3.50;99.90;;;;;;1828067;77;21562;-74
2021/11/06 07:24:04;;;;;;;30.32;12.20;;;3.50;99.90;;;;;;1823306;77;21161;-75
2021/11/06 07:26:30;;;;;;;28.25;12.30;;;3.40;99.90;;;;;;1833549;78;21098;-75
2021/11/06 07:28:57;;;;;;;34.10;11.18;;;3.40;99.90;;;;;;1822490;76;21103;-75
2021/11/06 07:31:23;;;;;;;26.37;10.50;;;3.50;99.90;;;;;;1827249;76;21068;-74
2021/11/06 07:33:52;;;;;;;26.15;9.58;;;3.50;99.90;;;;;;1825047;77;21095;-76
2021/11/06 07:36:17;;;;;;;24.27;9.98;;;3.40;99.90;;;;;;1825284;77;21109;-75
2021/11/06 07:38:43;;;;;;;33.58;11.33;;;3.40;99.90;;;;;;1831807;77;21090;-75
2021/11/06 07:41:09;;;;;;;26.70;10.08;;;3.50;99.90;;;;;;1871507;75;21196;-76
2021/11/06 07:43:37;;;;;;;25.55;10.58;;;3.60;99.90;;;;;;1842352;77;21195;-75
2021/11/06 07:46:03;;;;;;;22.17;9.53;;;3.60;99.90;;;;;;1826985;76;21168;-76
2021/11/06 07:48:30;;;;;;;23.27;10.70;;;3.60;99.90;;;;;;1819897;77;21102;-76
2021/11/06 07:50:56;;;;;;;23.32;9.80;;;3.60;99.90;;;;;;1825018;77;21106;-75
2021/11/06 07:53:22;;;;;;;27.32;11.00;;;3.60;99.90;;;;;;1874314;75;21116;-76
2021/11/06 07:55:48;;;;;;;30.10;10.40;;;3.70;99.90;;;;;;1874870;75;21147;-75
2021/11/06 07:58:14;;;;;;;31.48;9.98;;;3.70;99.90;;;;;;1818951;76;21118;-75
2021/11/06 08:00:40;;;;;;;27.20;10.40;;;3.70;99.90;;;;;;1819709;78;21102;-75
2021/11/06 08:03:06;;;;;;;28.23;11.20;;;3.70;99.90;;;;;;1831372;77;21103;-75
2021/11/06 08:05:33;;;;;;;29.50;10.63;;;3.80;99.90;;;;;;1822992;77;21590;-75
2021/11/06 08:07:59;;;;;;;28.98;10.82;;;3.90;99.90;;;;;;1879163;75;21501;-74
2021/11/06 08:10:27;;;;;;;22.10;11.25;;;3.90;99.90;;;;;;1859343;75;21567;-75
2021/11/06 08:12:53;;;;;;;28.02;12.43;;;3.90;99.90;;;;;;1834540;77;21105;-75
2021/11/06 08:15:19;;;;;;;31.50;13.32;;;3.80;99.90;;;;;;1820801;77;21236;-75
2021/11/06 08:17:45;;;;;;;29.00;11.15;;;3.90;99.90;;;;;;1832865;77;21519;-75
2021/11/06 08:20:11;;;;;;;34.25;14.23;;;3.90;99.90;;;;;;1833438;78;21101;-75
2021/11/06 08:22:37;;;;;;;29.37;12.30;;;4.00;99.90;;;;;;1831218;78;21563;-75
2021/11/06 08:25:03;;;;;;;28.62;12.90;;;4.00;99.90;;;;;;1823418;77;21631;-75
2021/11/06 08:27:29;;;;;;;29.10;12.82;;;4.10;99.90;;;;;;1832868;77;21473;-73
2021/11/06 08:29:56;;;;;;;33.78;14.15;;;4.10;99.90;;;;;;1835546;77;21527;-73
2021/11/06 08:32:22;;;;;;;25.37;14.35;;;4.10;99.90;;;;;;1833771;77;21144;-75
2021/11/06 08:34:48;;;;;;;29.10;14.55;;;4.00;99.90;;;;;;1827157;77;21184;-71
2021/11/06 08:37:15;;;;;;;23.05;13.72;;;4.10;99.90;;;;;;1830949;77;21183;-74
2021/11/06 08:39:41;;;;;;;34.18;15.45;;;4.10;99.90;;;;;;1819511;78;21506;-74
2021/11/06 08:42:07;;;;;;;29.25;15.20;;;4.00;99.90;;;;;;1829134;76;21491;-74
2021/11/06 08:44:33;;;;;;;28.02;15.30;;;4.10;99.90;;;;;;1840354;77;21106;-75
2021/11/06 08:46:59;;;;;;;27.67;14.63;;;4.30;99.90;;;;;;1830682;77;21089;-74
2021/11/06 08:49:25;;;;;;;23.35;14.07;;;4.40;99.90;;;;;;1819122;77;21153;-74
2021/11/06 08:51:51;;;;;;;24.02;13.68;;;4.30;99.90;;;;;;1816122;76;21145;-74
2021/11/06 08:54:17;;;;;;;39.35;15.70;;;4.20;99.90;;;;;;1819067;77;21097;-74
2021/11/06 08:56:44;;;;;;;26.00;13.88;;;4.40;99.90;;;;;;1829313;76;21168;-75
2021/11/06 08:59:10;;;;;;;25.17;13.03;;;4.40;99.90;;;;;;1839664;77;21162;-74
2021/11/06 09:01:36;;;;;;;25.08;13.10;;;4.30;99.90;;;;;;1825969;77;21215;-74
2021/11/06 09:04:02;;;;;;;36.35;14.30;;;4.40;99.90;;;;;;1824386;77;21099;-74
2021/11/06 09:06:33;;;;;;;46.50;15.48;;;4.30;99.90;;;;;;1828831;76;21148;-73
2021/11/06 09:08:56;;;;;;;35.13;15.30;;;4.30;99.90;;;;;;1818464;78;21098;-74
2021/11/06 09:11:22;;;;;;;31.23;14.93;;;4.40;99.90;;;;;;1818403;76;21290;-73
2021/11/06 09:13:54;;;;;;;25.77;14.28;;;4.30;99.90;;;;;;1819100;77;21104;-73
2021/11/06 09:16:19;;;;;;;26.77;14.30;;;4.30;99.90;;;;;;1834652;76;21172;-73
2021/11/06 09:18:45;;;;;;;31.93;15.83;;;4.50;99.90;;;;;;1824874;76;21173;-72
2021/11/06 09:21:12;;;;;;;30.12;15.38;;;4.50;99.90;;;;;;1836867;77;21098;-72
2021/11/06 09:23:38;;;;;;;37.60;16.05;;;4.50;99.90;;;;;;1830725;76;21097;-74
2021/11/06 09:26:04;;;;;;;25.55;15.53;;;4.60;99.90;;;;;;1869951;75;21060;-74
2021/11/06 09:28:32;;;;;;;29.05;14.95;;;4.70;99.90;;;;;;1870300;76;21085;-73
2021/11/06 09:30:58;;;;;;;33.80;15.90;;;4.80;99.90;;;;;;1817311;76;21138;-73
2021/11/06 09:33:24;;;;;;;30.45;15.55;;;4.90;99.90;;;;;;1818903;77;21110;-73
2021/11/06 09:35:50;;;;;;;37.50;16.52;;;4.80;99.90;;;;;;1826329;76;21473;-74
2021/11/06 09:38:16;;;;;;;34.85;16.87;;;5.00;99.90;;;;;;1818948;77;21314;-72
2021/11/06 09:40:42;;;;;;;31.68;16.65;;;5.00;99.90;;;;;;1817885;76;21133;-73
2021/11/06 09:43:09;;;;;;;29.70;15.23;;;5.00;99.90;;;;;;1818999;77;21099;-71
2021/11/06 09:45:35;;;;;;;25.10;16.20;;;5.10;99.90;;;;;;1831611;76;21196;-72
2021/11/06 09:48:01;;;;;;;30.12;17.07;;;5.20;99.90;;;;;;1869824;76;21058;-73
2021/11/06 09:50:27;;;;;;;26.62;16.60;;;5.10;99.90;;;;;;1814738;78;21263;-72
2021/11/06 09:52:56;;;;;;;32.08;14.80;;;5.30;99.90;;;;;;1829996;76;21106;-72
2021/11/06 09:55:21;;;;;;;32.17;16.52;;;5.40;99.90;;;;;;1818899;76;21561;-72
2021/11/06 09:57:47;;;;;;;30.23;16.75;;;5.30;99.90;;;;;;1881728;75;21094;-73
2021/11/06 10:00:13;;;;;;;31.20;17.00;;;5.10;99.90;;;;;;1874562;75;21486;-72
2021/11/06 10:02:41;;;;;;;31.55;18.52;;;5.20;99.90;;;;;;1822056;76;21595;-74
2021/11/06 10:05:07;;;;;;;26.48;16.97;;;5.20;99.90;;;;;;1819937;79;21118;-72
2021/11/06 10:07:34;;;;;;;30.48;17.05;;;5.20;99.90;;;;;;1840388;77;21094;-72
2021/11/06 10:10:00;;;;;;;31.68;16.90;;;5.30;99.90;;;;;;1820823;76;21098;-72
2021/11/06 10:12:30;;;;;;;34.13;18.00;;;5.20;99.90;;;;;;1819594;78;21138;-72
2021/11/06 10:14:54;;;;;;;32.60;18.92;;;5.30;99.90;;;;;;1866878;75;21118;-72
2021/11/06 10:17:20;;;;;;;43.10;19.25;;;5.10;99.90;;;;;;1871381;75;21153;-72
2021/11/06 10:19:50;;;;;;;35.08;18.70;;;4.90;99.90;;;;;;1832424;77;21166;-77
2021/11/06 10:22:14;;;;;;;39.13;19.27;;;4.80;99.90;;;;;;1818475;77;21495;-73
2021/11/06 10:24:40;;;;;;;34.95;19.10;;;4.80;99.90;;;;;;1838453;77;21544;-73
2021/11/06 10:27:06;;;;;;;35.68;20.05;;;4.80;99.90;;;;;;1825432;76;21593;-72
2021/11/06 10:29:38;;;;;;;30.80;18.48;;;4.80;99.90;;;;;;1868293;75;21209;-74
2021/11/06 10:32:00;;;;;;;29.82;18.90;;;5.10;99.90;;;;;;1862802;75;21184;-73
2021/11/06 10:34:26;;;;;;;50.55;19.27;;;5.20;99.90;;;;;;1861372;75;21064;-74
2021/11/06 10:36:52;;;;;;;34.03;20.00;;;5.30;99.90;;;;;;1866718;75;21078;-73
2021/11/06 10:39:18;;;;;;;29.87;18.20;;;5.30;99.90;;;;;;1859418;75;21151;-72
2021/11/06 10:41:45;;;;;;;36.75;19.42;;;5.30;99.90;;;;;;1828639;76;21086;-73
2021/11/06 10:44:11;;;;;;;33.20;19.05;;;5.30;99.90;;;;;;1830572;76;21103;-73
2021/11/06 10:46:37;;;;;;;44.05;18.62;;;5.30;99.90;;;;;;1819259;77;21161;-73
2021/11/06 10:49:03;;;;;;;25.00;16.65;;;5.30;99.90;;;;;;1820565;76;21145;-74
2021/11/06 10:51:29;;;;;;;31.15;19.20;;;5.30;99.90;;;;;;1819985;77;21122;-73
2021/11/06 10:53:55;;;;;;;32.93;18.95;;;5.40;99.90;;;;;;1865601;75;21107;-73
2021/11/06 10:56:22;;;;;;;32.70;20.05;;;5.10;99.90;;;;;;1824796;76;21172;-75
2021/11/06 10:58:49;;;;;;;32.83;19.12;;;5.10;99.90;;;;;;1862106;75;21159;-74
2021/11/06 11:01:15;;;;;;;34.98;20.52;;;4.90;99.90;;;;;;1879077;76;21203;-73
2021/11/06 11:03:41;;;;;;;39.92;20.88;;;4.70;99.90;;;;;;1836911;77;21099;-72
2021/11/06 11:06:07;;;;;;;35.25;20.48;;;4.80;99.90;;;;;;1819669;79;21198;-72
2021/11/06 11:08:33;;;;;;;36.73;21.02;;;5.00;99.90;;;;;;1831629;77;21550;-72
2021/11/06 11:10:59;;;;;;;36.85;21.40;;;5.10;99.90;;;;;;1865711;75;21534;-70
2021/11/06 11:13:26;;;;;;;30.80;20.25;;;5.30;99.90;;;;;;1834890;77;21585;-74
2021/11/06 11:15:52;;;;;;;30.10;18.87;;;5.40;99.90;;;;;;1832126;77;21471;-74
2021/11/06 11:18:18;;;;;;;34.78;20.68;;;5.40;99.90;;;;;;1883198;76;21561;-73
2021/11/06 11:20:44;;;;;;;31.80;19.85;;;5.40;99.90;;;;;;1825345;76;21099;-73
2021/11/06 11:23:10;;;;;;;36.08;19.20;;;5.60;99.90;;;;;;1824130;76;21212;-72
2021/11/06 11:25:36;;;;;;;35.33;21.25;;;5.60;99.90;;;;;;1877711;75;21094;-72
2021/11/06 11:28:02;;;;;;;37.98;21.07;;;5.50;99.90;;;;;;1831243;77;21522;-74
2021/11/06 11:30:29;;;;;;;31.55;19.90;;;5.60;99.90;;;;;;1814689;77;21059;-74
2021/11/06 11:32:55;;;;;;;35.95;20.62;;;5.70;99.90;;;;;;1835166;77;21526;-73
2021/11/06 11:35:21;;;;;;;35.58;21.87;;;5.60;99.90;;;;;;1877836;75;21607;-73
2021/11/06 11:37:47;;;;;;;34.95;20.80;;;5.70;99.90;;;;;;1871160;75;21567;-73
2021/11/06 11:40:13;;;;;;;33.10;21.80;;;5.80;99.90;;;;;;1819865;76;21541;-73
2021/11/06 11:42:39;;;;;;;40.00;22.27;;;5.90;99.90;;;;;;1873724;75;21221;-74
2021/11/06 11:45:05;;;;;;;36.88;21.50;;;5.90;99.90;;;;;;1859421;75;21093;-74
2021/11/06 11:47:31;;;;;;;33.42;22.00;;;5.90;99.90;;;;;;1820088;76;21077;-70
2021/11/06 11:50:00;;;;;;;35.33;22.22;;;5.80;99.90;;;;;;1819463;77;21071;-73
2021/11/06 11:52:27;;;;;;;40.33;21.50;;;5.80;99.90;;;;;;1822915;76;21621;-71
2021/11/06 11:54:53;;;;;;;29.48;19.50;;;5.80;99.90;;;;;;1866908;75;21198;-70
2021/11/06 11:57:19;;;;;;;30.30;20.45;;;6.00;99.90;;;;;;1869177;75;21091;-74
2021/11/06 11:59:46;;;;;;;31.35;19.70;;;5.80;99.90;;;;;;1867056;75;21121;-72
2021/11/06 12:02:12;;;;;;;28.65;20.35;;;5.90;99.90;;;;;;1875171;75;21153;-72
2021/11/06 12:04:38;;;;;;;36.25;21.37;;;5.80;99.90;;;;;;1828979;76;21162;-72
2021/11/06 12:07:04;;;;;;;32.38;19.95;;;5.90;99.90;;;;;;1821250;76;21087;-73
2021/11/06 12:09:31;;;;;;;40.50;20.52;;;6.00;99.90;;;;;;1832339;76;21130;-72
2021/11/06 12:11:57;;;;;;;30.95;21.10;;;6.10;99.90;;;;;;1820624;77;21079;-71
2021/11/06 12:14:23;;;;;;;31.10;21.68;;;6.20;99.90;;;;;;1821802;76;21158;-70
2021/11/06 12:16:49;;;;;;;35.55;21.15;;;6.40;99.90;;;;;;1820156;77;21233;-70
2021/11/06 12:19:15;;;;;;;33.28;22.13;;;6.30;99.90;;;;;;1819955;76;21462;-70
2021/11/06 12:21:41;;;;;;;31.20;21.05;;;6.20;99.90;;;;;;1820382;77;21148;-70
2021/11/06 12:24:07;;;;;;;35.63;22.05;;;6.30;99.90;;;;;;1824354;76;21444;-69
2021/11/06 12:26:34;;;;;;;32.03;20.57;;;6.50;99.90;;;;;;1836099;77;21535;-70
2021/11/06 12:29:00;;;;;;;33.80;21.60;;;6.40;99.90;;;;;;1882782;76;21142;-71
2021/11/06 12:31:26;;;;;;;35.05;21.62;;;6.50;99.90;;;;;;1875594;74;21254;-71